createdAt,value
2022-10-07T06:35:24.342Z,19.37
2022-10-07T06:40:20.637Z,16.20
2022-10-07T06:54:52.877Z,11.90
2022-10-07T07:13:15.378Z,12.53
2022-10-07T07:30:59.501Z,12.10
2022-10-07T07:47:17.304Z,10.73
2022-10-07T08:01:45.611Z,10.83
2022-10-07T08:15:48.047Z,6.47
2022-10-07T08:20:41.743Z,7.53
2022-10-07T08:34:15.664Z,10.03
2022-10-07T08:39:09.271Z,7.37
2022-10-07T08:44:17.984Z,10.33
2022-10-07T08:49:17.161Z,7.40
2022-10-07T08:54:14.152Z,7.57
2022-10-07T08:59:21.870Z,9.75
2022-10-07T09:04:29.122Z,7.28
2022-10-07T09:09:27.714Z,8.93
2022-10-07T09:14:29.151Z,11.32
2022-10-07T09:19:31.585Z,5.88
2022-10-07T09:24:32.189Z,6.78
2022-10-07T09:29:28.186Z,7.25
2022-10-07T09:34:26.234Z,7.82
2022-10-07T09:39:24.449Z,4.60
2022-10-07T09:44:27.710Z,7.63
2022-10-07T09:54:45.882Z,6.80
2022-10-07T09:59:40.438Z,5.82
2022-10-07T10:04:37.909Z,8.32
2022-10-07T10:09:32.110Z,5.88
2022-10-07T10:14:38.937Z,7.88
2022-10-07T10:19:36.528Z,5.75
2022-10-07T10:24:49.528Z,5.15
2022-10-07T10:29:53.740Z,6.10
2022-10-07T10:34:56.237Z,4.25
2022-10-07T10:40:07.579Z,7.35
2022-10-07T10:45:18.469Z,7.75
2022-10-07T10:50:19.656Z,7.50
2022-10-07T10:55:29.017Z,4.07
2022-10-07T11:00:25.130Z,5.68
2022-10-07T11:05:23.702Z,6.30
2022-10-07T11:10:22.334Z,7.78
2022-10-07T11:15:21.453Z,8.38
2022-10-07T11:20:22.112Z,6.50
2022-10-07T11:25:26.082Z,5.45
2022-10-07T11:30:22.404Z,6.40
2022-10-07T11:35:27.717Z,4.60
2022-10-07T11:40:29.047Z,6.07
2022-10-07T11:45:28.297Z,4.57
2022-10-07T11:50:28.102Z,3.67
2022-10-07T11:55:26.407Z,6.43
2022-10-07T12:00:28.256Z,5.30
2022-10-07T12:05:59.619Z,7.03
2022-10-07T12:10:56.186Z,5.43
2022-10-07T12:15:51.063Z,6.30
2022-10-07T12:20:59.133Z,6.53
2022-10-07T12:25:56.282Z,7.15
2022-10-07T12:30:52.951Z,5.47
2022-10-07T12:35:54.229Z,6.07
2022-10-07T12:40:56.167Z,3.90
2022-10-07T12:45:53.038Z,6.35
2022-10-07T12:50:49.731Z,5.35
2022-10-07T12:55:50.343Z,3.67
2022-10-07T13:00:57.353Z,4.18
2022-10-07T13:06:26.351Z,9.43
2022-10-07T13:11:47.551Z,7.38
2022-10-07T13:16:50.070Z,6.18
2022-10-07T13:21:48.030Z,5.63
2022-10-07T13:26:45.686Z,4.20
2022-10-07T13:31:39.486Z,6.88
2022-10-07T13:36:43.886Z,5.55
2022-10-07T13:41:39.302Z,6.03
2022-10-07T13:46:36.354Z,5.88
2022-10-07T13:51:35.507Z,9.35
2022-10-07T13:56:33.893Z,7.45
2022-10-07T14:01:29.978Z,6.72
2022-10-07T14:06:39.103Z,5.95
2022-10-07T14:11:32.654Z,4.88
2022-10-07T14:16:26.485Z,8.00
2022-10-07T14:21:20.686Z,7.22
2022-10-07T14:26:17.877Z,5.00
2022-10-07T14:31:36.235Z,5.68
2022-10-07T14:36:29.821Z,7.13
2022-10-07T14:41:27.452Z,5.10
2022-10-07T14:46:23.019Z,4.70
2022-10-07T14:51:19.085Z,5.85
2022-10-07T14:56:15.739Z,5.82
2022-10-07T15:01:10.748Z,9.13
2022-10-07T15:06:04.294Z,6.28
2022-10-07T15:10:57.890Z,5.97
2022-10-07T15:15:51.894Z,5.60
2022-10-07T15:20:47.271Z,8.25
2022-10-07T15:25:42.877Z,7.60
2022-10-07T15:30:39.358Z,7.22
2022-10-07T15:35:36.011Z,11.57
2022-10-07T15:40:31.861Z,6.35
2022-10-07T15:45:27.081Z,4.85
2022-10-07T15:50:21.010Z,5.00
2022-10-07T15:55:16.449Z,45.28
2022-10-07T16:00:13.807Z,12.15
2022-10-07T16:05:09.807Z,9.13
2022-10-07T16:10:03.723Z,6.25
2022-10-07T16:14:57.597Z,7.38
2022-10-07T16:19:53.125Z,11.80
2022-10-07T16:24:46.878Z,13.70
2022-10-07T16:29:57.843Z,11.90
2022-10-07T16:34:53.465Z,10.75
2022-10-07T16:39:47.947Z,8.48
2022-10-07T16:44:41.653Z,9.82
2022-10-07T16:49:36.601Z,10.63
2022-10-07T16:54:32.876Z,7.97
2022-10-07T16:59:27.574Z,12.02
2022-10-07T17:04:21.410Z,10.25
2022-10-07T17:09:17.577Z,8.35
2022-10-07T17:14:16.819Z,11.70
2022-10-07T17:19:16.059Z,17.30
2022-10-07T17:24:13.305Z,12.38
2022-10-07T17:29:12.397Z,19.75
2022-10-07T17:34:08.899Z,13.35
2022-10-07T17:39:03.126Z,12.32
2022-10-07T17:43:59.432Z,14.13
2022-10-07T17:48:55.196Z,14.80
2022-10-07T17:53:51.354Z,21.23
2022-10-07T17:58:47.590Z,16.23
2022-10-07T18:03:44.237Z,16.00
2022-10-07T18:08:43.222Z,15.13
2022-10-07T18:13:55.921Z,13.43
2022-10-07T18:18:54.488Z,18.58
2022-10-07T18:23:48.096Z,17.60
2022-10-07T18:28:44.061Z,22.50
2022-10-07T18:33:39.377Z,30.08
2022-10-07T18:38:33.954Z,35.83
2022-10-07T18:43:28.189Z,47.00
2022-10-07T18:48:26.809Z,42.10
2022-10-07T18:53:23.992Z,43.80
2022-10-07T18:58:19.508Z,43.50
2022-10-07T19:03:13.809Z,31.42
2022-10-07T19:08:09.142Z,36.00
2022-10-07T19:13:21.374Z,30.15
2022-10-07T19:18:15.799Z,26.98
2022-10-07T19:23:11.929Z,41.67
2022-10-07T19:28:06.332Z,47.97
